sensor_id;sensor_type;location;lat;lon;timestamp;pressure;altitude;pressure_sealevel;temperature;humidity
53719;BME280;39616;48.872;9.390;2023-02-19T00:00:48;98877.16;;;7.65;100.00
53719;BME280;39616;48.872;9.390;2023-02-19T00:03:18;98882.53;;;7.65;100.00
53719;BME280;39616;48.872;9.390;2023-02-19T00:05:49;98881.22;;;7.68;100.00
53719;BME280;39616;48.872;9.390;2023-02-19T00:08:19;98876.09;;;7.71;100.00
53719;BME280;39616;48.872;9.390;2023-02-19T00:10:49;98876.09;;;7.71;100.00
53719;BME280;39616;48.872;9.390;2023-02-19T00:13:19;98874.22;;;7.72;100.00
53719;BME280;39616;48.872;9.390;2023-02-19T00:15:50;98874.47;;;7.70;100.00
53719;BME280;39616;48.872;9.390;2023-02-19T00:18:20;98868.28;;;7.70;100.00
53719;BME280;39616;48.872;9.390;2023-02-19T00:20:51;98864.50;;;7.71;100.00
53719;BME280;39616;48.872;9.390;2023-02-19T00:23:21;98866.63;;;7.64;100.00
53719;BME280;39616;48.872;9.390;2023-02-19T00:25:51;98864.50;;;7.66;100.00
53719;BME280;39616;48.872;9.390;2023-02-19T00:28:21;98871.19;;;7.58;100.00
53719;BME280;39616;48.872;9.390;2023-02-19T00:30:52;98869.59;;;7.62;100.00
53719;BME280;39616;48.872;9.390;2023-02-19T00:33:22;98867.72;;;7.63;100.00
53719;BME280;39616;48.872;9.390;2023-02-19T00:35:52;98871.75;;;7.65;100.00
53719;BME280;39616;48.872;9.390;2023-02-19T00:38:23;98873.13;;;7.68;100.00
53719;BME280;39616;48.872;9.390;2023-02-19T00:40:53;98874.72;;;7.64;100.00
53719;BME280;39616;48.872;9.390;2023-02-19T00:43:23;98880.13;;;7.64;100.00
53719;BME280;39616;48.872;9.390;2023-02-19T00:45:53;98885.81;;;7.67;100.00
53719;BME280;39616;48.872;9.390;2023-02-19T00:48:24;98881.22;;;7.63;100.00
53719;BME280;39616;48.872;9.390;2023-02-19T00:50:54;98877.16;;;7.65;100.00
53719;BME280;39616;48.872;9.390;2023-02-19T00:53:24;98871.50;;;7.67;100.00
53719;BME280;39616;48.872;9.390;2023-02-19T00:55:54;98875.28;;;7.66;100.00
53719;BME280;39616;48.872;9.390;2023-02-19T00:58:25;98868.00;;;7.66;100.00
53719;BME280;39616;48.872;9.390;2023-02-19T01:00:55;98869.88;;;7.66;100.00
53719;BME280;39616;48.872;9.390;2023-02-19T01:03:26;98861.22;;;7.64;100.00
53719;BME280;39616;48.872;9.390;2023-02-19T01:05:56;98853.13;;;7.64;100.00
53719;BME280;39616;48.872;9.390;2023-02-19T01:08:27;98861.78;;;7.66;100.00
53719;BME280;39616;48.872;9.390;2023-02-19T01:11:01;98855.31;;;7.67;100.00
53719;BME280;39616;48.872;9.390;2023-02-19T01:13:32;98856.13;;;7.67;100.00
53719;BME280;39616;48.872;9.390;2023-02-19T01:18:37;98838.03;;;7.68;100.00
53719;BME280;39616;48.872;9.390;2023-02-19T01:21:11;98833.44;;;7.63;100.00
53719;BME280;39616;48.872;9.390;2023-02-19T01:23:42;98831.81;;;7.67;100.00
53719;BME280;39616;48.872;9.390;2023-02-19T01:26:15;98826.41;;;7.62;100.00
53719;BME280;39616;48.872;9.390;2023-02-19T01:28:47;98830.72;;;7.68;100.00
53719;BME280;39616;48.872;9.390;2023-02-19T01:31:20;98829.13;;;7.62;100.00
53719;BME280;39616;48.872;9.390;2023-02-19T01:33:56;98827.47;;;7.61;100.00
53719;BME280;39616;48.872;9.390;2023-02-19T01:36:28;98829.94;;;7.68;100.00
53719;BME280;39616;48.872;9.390;2023-02-19T01:39:00;98826.69;;;7.71;100.00
53719;BME280;39616;48.872;9.390;2023-02-19T01:41:36;98817.78;;;7.70;100.00
53719;BME280;39616;48.872;9.390;2023-02-19T01:46:42;98822.09;;;7.71;100.00
53719;BME280;39616;48.872;9.390;2023-02-19T01:49:20;98816.72;;;7.66;100.00
53719;BME280;39616;48.872;9.390;2023-02-19T01:51:59;98819.13;;;7.68;100.00
53719;BME280;39616;48.872;9.390;2023-02-19T01:54:33;98821.00;;;7.62;100.00
53719;BME280;39616;48.872;9.390;2023-02-19T01:57:07;98811.59;;;7.70;100.00
53719;BME280;39616;48.872;9.390;2023-02-19T01:59:41;98811.59;;;7.70;100.00
53719;BME280;39616;48.872;9.390;2023-02-19T02:02:12;98809.69;;;7.70;100.00
53719;BME280;39616;48.872;9.390;2023-02-19T02:04:42;98811.31;;;7.71;100.00
53719;BME280;39616;48.872;9.390;2023-02-19T02:07:13;98815.91;;;7.71;100.00
53719;BME280;39616;48.872;9.390;2023-02-19T02:10:02;98809.41;;;7.72;100.00
53719;BME280;39616;48.872;9.390;2023-02-19T02:12:56;98807.00;;;7.70;100.00
53719;BME280;39616;48.872;9.390;2023-02-19T02:15:34;98798.34;;;7.68;100.00
53719;BME280;39616;48.872;9.390;2023-02-19T02:18:27;98807.25;;;7.64;100.00
53719;BME280;39616;48.872;9.390;2023-02-19T02:21:35;98802.13;;;7.62;100.00
53719;BME280;39616;48.872;9.390;2023-02-19T02:24:32;98809.94;;;7.64;100.00
53719;BME280;39616;48.872;9.390;2023-02-19T02:30:11;98790.50;;;7.62;100.00
53719;BME280;39616;48.872;9.390;2023-02-19T02:33:30;98794.84;;;7.63;100.00
53719;BME280;39616;48.872;9.390;2023-02-19T02:36:11;98791.56;;;7.61;100.00
53719;BME280;39616;48.872;9.390;2023-02-19T02:38:45;98787.78;;;7.62;100.00
53719;BME280;39616;48.872;9.390;2023-02-19T02:41:17;98778.06;;;7.61;100.00
53719;BME280;39616;48.872;9.390;2023-02-19T02:43:47;98782.66;;;7.60;100.00
53719;BME280;39616;48.872;9.390;2023-02-19T02:46:22;98784.28;;;7.61;100.00
53719;BME280;39616;48.872;9.390;2023-02-19T02:48:56;98783.47;;;7.61;100.00
53719;BME280;39616;48.872;9.390;2023-02-19T02:51:40;98780.53;;;7.62;100.00
53719;BME280;39616;48.872;9.390;2023-02-19T02:57:07;98778.63;;;7.63;100.00
53719;BME280;39616;48.872;9.390;2023-02-19T02:59:39;98778.09;;;7.66;100.00
53719;BME280;39616;48.872;9.390;2023-02-19T03:02:17;98783.50;;;7.66;100.00
53719;BME280;39616;48.872;9.390;2023-02-19T03:07:48;98775.13;;;7.62;100.00
53719;BME280;39616;48.872;9.390;2023-02-19T03:10:32;98777.00;;;7.62;100.00
53719;BME280;39616;48.872;9.390;2023-02-19T03:13:05;98782.66;;;7.60;100.00
53719;BME280;39616;48.872;9.390;2023-02-19T03:16:00;98768.91;;;7.62;100.00
53719;BME280;39616;48.872;9.390;2023-02-19T03:18:53;98778.34;;;7.59;100.00
53719;BME280;39616;48.872;9.390;2023-02-19T03:21:57;98759.19;;;7.61;100.00
53719;BME280;39616;48.872;9.390;2023-02-19T03:24:31;98764.59;;;7.61;100.00
53719;BME280;39616;48.872;9.390;2023-02-19T03:27:24;98767.28;;;7.61;100.00
53719;BME280;39616;48.872;9.390;2023-02-19T03:29:57;98754.59;;;7.61;100.00
53719;BME280;39616;48.872;9.390;2023-02-19T03:32:39;98762.16;;;7.59;100.00
53719;BME280;39616;48.872;9.390;2023-02-19T03:35:27;98757.00;;;7.58;100.00
53719;BME280;39616;48.872;9.390;2023-02-19T03:38:13;98761.88;;;7.61;100.00
53719;BME280;39616;48.872;9.390;2023-02-19T03:43:37;98765.09;;;7.58;100.00
53719;BME280;39616;48.872;9.390;2023-02-19T03:49:16;98769.44;;;7.59;100.00
53719;BME280;39616;48.872;9.390;2023-02-19T03:52:15;98769.44;;;7.59;100.00
53719;BME280;39616;48.872;9.390;2023-02-19T03:54:53;98778.34;;;7.59;100.00
53719;BME280;39616;48.872;9.390;2023-02-19T03:57:41;98777.28;;;7.55;100.00
53719;BME280;39616;48.872;9.390;2023-02-19T04:00:21;98772.69;;;7.56;100.00
53719;BME280;39616;48.872;9.390;2023-02-19T04:03:10;98781.59;;;7.56;100.00
53719;BME280;39616;48.872;9.390;2023-02-19T04:05:50;98788.88;;;7.56;100.00
53719;BME280;39616;48.872;9.390;2023-02-19T04:08:23;98785.38;;;7.55;100.00
53719;BME280;39616;48.872;9.390;2023-02-19T04:10:54;98787.25;;;7.60;100.00
53719;BME280;39616;48.872;9.390;2023-02-19T04:13:42;98796.16;;;7.55;100.00
53719;BME280;39616;48.872;9.390;2023-02-19T04:16:22;98791.56;;;7.56;100.00
53719;BME280;39616;48.872;9.390;2023-02-19T04:18:57;98796.69;;;7.52;100.00
53719;BME280;39616;48.872;9.390;2023-02-19T04:21:30;98795.88;;;7.52;100.00
53719;BME280;39616;48.872;9.390;2023-02-19T04:24:05;98795.88;;;7.57;100.00
53719;BME280;39616;48.872;9.390;2023-02-19T04:26:38;98801.84;;;7.59;100.00
53719;BME280;39616;48.872;9.390;2023-02-19T04:29:09;98798.06;;;7.60;100.00
53719;BME280;39616;48.872;9.390;2023-02-19T04:31:39;98801.28;;;7.57;100.00
53719;BME280;39616;48.872;9.390;2023-02-19T04:34:10;98803.69;;;7.48;100.00
53719;BME280;39616;48.872;9.390;2023-02-19T04:36:40;98811.78;;;7.53;100.00
53719;BME280;39616;48.872;9.390;2023-02-19T04:39:10;98805.59;;;7.47;100.00
53719;BME280;39616;48.872;9.390;2023-02-19T04:41:41;98829.59;;;7.49;100.00
53719;BME280;39616;48.872;9.390;2023-02-19T04:44:11;98822.88;;;7.52;100.00
53719;BME280;39616;48.872;9.390;2023-02-19T04:46:41;98826.34;;;7.47;100.00
53719;BME280;39616;48.872;9.390;2023-02-19T04:49:11;98828.50;;;7.45;100.00
53719;BME280;39616;48.872;9.390;2023-02-19T04:51:42;98824.72;;;7.41;100.00
53719;BME280;39616;48.872;9.390;2023-02-19T04:54:12;98831.44;;;7.43;100.00
53719;BME280;39616;48.872;9.390;2023-02-19T04:56:42;98838.72;;;7.43;100.00
53719;BME280;39616;48.872;9.390;2023-02-19T04:59:13;98838.97;;;7.36;100.00
53719;BME280;39616;48.872;9.390;2023-02-19T05:01:43;98839.75;;;7.32;100.00
53719;BME280;39616;48.872;9.390;2023-02-19T05:04:13;98843.81;;;7.34;100.00
53719;BME280;39616;48.872;9.390;2023-02-19T05:06:44;98837.34;;;7.30;100.00
53719;BME280;39616;48.872;9.390;2023-02-19T05:09:14;98834.88;;;7.29;100.00
53719;BME280;39616;48.872;9.390;2023-02-19T05:11:44;98847.56;;;7.28;100.00
53719;BME280;39616;48.872;9.390;2023-02-19T05:14:14;98849.75;;;7.31;100.00
53719;BME280;39616;48.872;9.390;2023-02-19T05:16:46;98852.97;;;7.28;100.00
53719;BME280;39616;48.872;9.390;2023-02-19T05:19:16;98852.72;;;7.30;100.00
53719;BME280;39616;48.872;9.390;2023-02-19T05:21:46;98850.25;;;7.23;100.00
53719;BME280;39616;48.872;9.390;2023-02-19T05:24:17;98844.06;;;7.28;100.00
53719;BME280;39616;48.872;9.390;2023-02-19T05:26:47;98857.81;;;7.26;100.00
53719;BME280;39616;48.872;9.390;2023-02-19T05:29:18;98850.78;;;7.25;100.00
53719;BME280;39616;48.872;9.390;2023-02-19T05:31:48;98839.19;;;7.24;100.00
53719;BME280;39616;48.872;9.390;2023-02-19T05:34:18;98847.53;;;7.23;100.00
53719;BME280;39616;48.872;9.390;2023-02-19T05:36:48;98854.56;;;7.24;100.00
53719;BME280;39616;48.872;9.390;2023-02-19T05:39:19;98854.31;;;7.25;100.00
53719;BME280;39616;48.872;9.390;2023-02-19T05:41:49;98849.97;;;7.24;100.00
53719;BME280;39616;48.872;9.390;2023-02-19T05:44:19;98867.75;;;7.20;100.00
53719;BME280;39616;48.872;9.390;2023-02-19T05:46:50;98867.22;;;7.18;100.00
53719;BME280;39616;48.872;9.390;2023-02-19T05:49:20;98869.88;;;7.13;100.00
53719;BME280;39616;48.872;9.390;2023-02-19T05:51:50;98867.75;;;7.15;100.00
53719;BME280;39616;48.872;9.390;2023-02-19T05:54:20;98867.44;;;7.12;100.00
53719;BME280;39616;48.872;9.390;2023-02-19T05:56:51;98873.06;;;7.10;100.00
53719;BME280;39616;48.872;9.390;2023-02-19T05:59:23;98877.44;;;7.16;100.00
53719;BME280;39616;48.872;9.390;2023-02-19T06:01:54;98876.63;;;7.16;100.00
53719;BME280;39616;48.872;9.390;2023-02-19T06:04:24;98882.81;;;7.11;100.00
53719;BME280;39616;48.872;9.390;2023-02-19T06:06:55;98882.81;;;7.11;100.00
53719;BME280;39616;48.872;9.390;2023-02-19T06:09:25;98874.47;;;7.18;100.00
53719;BME280;39616;48.872;9.390;2023-02-19T06:11:55;98871.25;;;7.16;100.00
53719;BME280;39616;48.872;9.390;2023-02-19T06:14:26;98858.84;;;7.15;100.00
53719;BME280;39616;48.872;9.390;2023-02-19T06:16:56;98863.97;;;7.16;100.00
53719;BME280;39616;48.872;9.390;2023-02-19T06:19:26;98883.69;;;7.22;100.00
53719;BME280;39616;48.872;9.390;2023-02-19T06:21:57;98891.25;;;7.25;100.00
53719;BME280;39616;48.872;9.390;2023-02-19T06:24:27;98886.97;;;7.29;100.00
53719;BME280;39616;48.872;9.390;2023-02-19T06:26:57;98888.59;;;7.30;100.00
53719;BME280;39616;48.872;9.390;2023-02-19T06:29:28;98887.00;;;7.34;100.00
53719;BME280;39616;48.872;9.390;2023-02-19T06:31:58;98884.28;;;7.34;100.00
53719;BME280;39616;48.872;9.390;2023-02-19T06:34:30;98864.56;;;7.29;100.00
53719;BME280;39616;48.872;9.390;2023-02-19T06:37:00;98887.22;;;7.28;100.00
53719;BME280;39616;48.872;9.390;2023-02-19T06:39:31;98879.72;;;7.35;100.00
53719;BME280;39616;48.872;9.390;2023-02-19T06:42:01;98885.91;;;7.30;100.00
53719;BME280;39616;48.872;9.390;2023-02-19T06:44:31;98891.31;;;7.35;100.00
53719;BME280;39616;48.872;9.390;2023-02-19T06:47:02;98899.16;;;7.37;100.00
53719;BME280;39616;48.872;9.390;2023-02-19T06:49:32;98896.19;;;7.38;100.00
53719;BME280;39616;48.872;9.390;2023-02-19T06:52:02;98916.16;;;7.42;100.00
53719;BME280;39616;48.872;9.390;2023-02-19T06:54:33;98911.84;;;7.41;100.00
53719;BME280;39616;48.872;9.390;2023-02-19T06:57:03;98905.94;;;7.44;100.00
53719;BME280;39616;48.872;9.390;2023-02-19T06:59:33;98921.84;;;7.46;100.00
53719;BME280;39616;48.872;9.390;2023-02-19T07:02:04;98914.84;;;7.45;100.00
53719;BME280;39616;48.872;9.390;2023-02-19T07:04:34;98910.28;;;7.50;100.00
53719;BME280;39616;48.872;9.390;2023-02-19T07:07:05;98908.72;;;7.60;100.00
53719;BME280;39616;48.872;9.390;2023-02-19T07:09:35;98920.03;;;7.62;100.00
53719;BME280;39616;48.872;9.390;2023-02-19T07:12:05;98930.84;;;7.62;100.00
53719;BME280;39616;48.872;9.390;2023-02-19T07:14:36;98925.44;;;7.62;100.00
53719;BME280;39616;48.872;9.390;2023-02-19T07:17:06;98930.31;;;7.65;100.00
53719;BME280;39616;48.872;9.390;2023-02-19T07:19:36;98940.88;;;7.66;100.00
53719;BME280;39616;48.872;9.390;2023-02-19T07:22:07;98951.69;;;7.71;100.00
53719;BME280;39616;48.872;9.390;2023-02-19T07:24:37;98960.59;;;7.72;100.00
53719;BME280;39616;48.872;9.390;2023-02-19T07:27:07;98963.56;;;7.70;100.00
53719;BME280;39616;48.872;9.390;2023-02-19T07:29:37;98963.53;;;7.65;100.00
53719;BME280;39616;48.872;9.390;2023-02-19T07:32:08;98964.59;;;7.59;100.00
53719;BME280;39616;48.872;9.390;2023-02-19T07:34:38;98960.50;;;7.57;100.00
53719;BME280;39616;48.872;9.390;2023-02-19T07:37:08;98963.22;;;7.57;100.00
53719;BME280;39616;48.872;9.390;2023-02-19T07:39:39;98954.31;;;7.56;100.00
53719;BME280;39616;48.872;9.390;2023-02-19T07:42:09;98962.69;;;7.60;100.00
53719;BME280;39616;48.872;9.390;2023-02-19T07:44:39;98963.53;;;7.65;100.00
53719;BME280;39616;48.872;9.390;2023-02-19T07:47:09;98971.59;;;7.60;100.00
53719;BME280;39616;48.872;9.390;2023-02-19T07:49:40;98962.19;;;7.63;100.00
53719;BME280;39616;48.872;9.390;2023-02-19T07:52:10;98967.56;;;7.63;100.00
53719;BME280;39616;48.872;9.390;2023-02-19T07:54:40;98984.28;;;7.60;100.00
53719;BME280;39616;48.872;9.390;2023-02-19T07:57:10;98969.50;;;7.67;100.00
53719;BME280;39616;48.872;9.390;2023-02-19T07:59:41;98972.47;;;7.71;100.00
53719;BME280;39616;48.872;9.390;2023-02-19T08:02:16;98971.69;;;7.75;100.00
53719;BME280;39616;48.872;9.390;2023-02-19T08:05:05;98967.63;;;7.73;100.00
53719;BME280;39616;48.872;9.390;2023-02-19T08:07:36;98977.09;;;7.75;100.00
53719;BME280;39616;48.872;9.390;2023-02-19T08:10:06;98971.44;;;7.77;100.00
53719;BME280;39616;48.872;9.390;2023-02-19T08:12:59;98965.25;;;7.82;100.00
53719;BME280;39616;48.872;9.390;2023-02-19T08:18:27;98982.09;;;8.04;100.00
53719;BME280;39616;48.872;9.390;2023-02-19T08:20:58;98971.81;;;8.06;100.00
53719;BME280;39616;48.872;9.390;2023-02-19T08:23:29;98976.97;;;8.13;100.00
53719;BME280;39616;48.872;9.390;2023-02-19T08:26:00;98980.25;;;8.20;100.00
53719;BME280;39616;48.872;9.390;2023-02-19T08:28:31;98970.81;;;8.28;100.00
53719;BME280;39616;48.872;9.390;2023-02-19T08:31:04;98987.09;;;8.38;100.00
53719;BME280;39616;48.872;9.390;2023-02-19T08:33:35;98988.97;;;8.32;100.00
53719;BME280;39616;48.872;9.390;2023-02-19T08:36:08;99000.88;;;8.36;100.00
53719;BME280;39616;48.872;9.390;2023-02-19T08:38:38;98996.81;;;8.39;100.00
53719;BME280;39616;48.872;9.390;2023-02-19T08:41:11;99006.88;;;8.49;100.00
53719;BME280;39616;48.872;9.390;2023-02-19T08:43:42;99000.88;;;8.36;100.00
53719;BME280;39616;48.872;9.390;2023-02-19T08:46:12;99002.50;;;8.42;100.00
53719;BME280;39616;48.872;9.390;2023-02-19T08:48:43;99003.81;;;8.35;100.00
53719;BME280;39616;48.872;9.390;2023-02-19T08:51:14;99007.03;;;8.32;100.00
53719;BME280;39616;48.872;9.390;2023-02-19T08:53:44;99019.53;;;8.38;99.89
53719;BME280;39616;48.872;9.390;2023-02-19T08:56:15;99018.78;;;8.48;100.00
53719;BME280;39616;48.872;9.390;2023-02-19T08:58:46;99025.31;;;8.62;98.78
53719;BME280;39616;48.872;9.390;2023-02-19T09:01:17;99028.56;;;8.69;99.02
53719;BME280;39616;48.872;9.390;2023-02-19T09:03:47;99034.50;;;8.76;97.41
53719;BME280;39616;48.872;9.390;2023-02-19T09:06:20;99038.03;;;8.77;96.36
53719;BME280;39616;48.872;9.390;2023-02-19T09:08:51;99039.41;;;8.84;94.98
53719;BME280;39616;48.872;9.390;2023-02-19T09:11:21;99042.09;;;8.79;93.71
53719;BME280;39616;48.872;9.390;2023-02-19T09:13:54;99045.88;;;8.73;93.99
53719;BME280;39616;48.872;9.390;2023-02-19T09:16:25;99056.69;;;8.78;95.25
53719;BME280;39616;48.872;9.390;2023-02-19T09:18:55;99048.59;;;8.73;93.57
53719;BME280;39616;48.872;9.390;2023-02-19T09:21:26;99054.00;;;8.73;94.53
53719;BME280;39616;48.872;9.390;2023-02-19T09:23:56;99065.34;;;8.75;95.21
53719;BME280;39616;48.872;9.390;2023-02-19T09:26:26;99064.28;;;8.86;94.73
53719;BME280;39616;48.872;9.390;2023-02-19T09:28:56;99063.47;;;8.86;95.16
53719;BME280;39616;48.872;9.390;2023-02-19T09:31:27;99068.63;;;8.87;93.86
53719;BME280;39616;48.872;9.390;2023-02-19T09:33:57;99060.53;;;8.92;93.85
53719;BME280;39616;48.872;9.390;2023-02-19T09:36:27;99059.19;;;8.95;92.67
53719;BME280;39616;48.872;9.390;2023-02-19T09:38:59;99056.19;;;9.02;92.89
53719;BME280;39616;48.872;9.390;2023-02-19T09:41:31;99052.41;;;9.13;90.85
53719;BME280;39616;48.872;9.390;2023-02-19T09:44:05;99047.56;;;9.10;90.12
53719;BME280;39616;48.872;9.390;2023-02-19T09:46:42;99057.84;;;9.23;88.72
53719;BME280;39616;48.872;9.390;2023-02-19T09:49:20;99060.81;;;9.27;87.36
53719;BME280;39616;48.872;9.390;2023-02-19T09:52:00;99058.41;;;9.25;86.10
53719;BME280;39616;48.872;9.390;2023-02-19T09:54:33;99073.53;;;9.31;85.93
53719;BME280;39616;48.872;9.390;2023-02-19T09:57:11;99076.78;;;9.38;84.74
53719;BME280;39616;48.872;9.390;2023-02-19T09:59:50;99086.84;;;9.43;84.43
53719;BME280;39616;48.872;9.390;2023-02-19T10:02:22;99083.59;;;9.51;84.96
53719;BME280;39616;48.872;9.390;2023-02-19T10:04:53;99080.88;;;9.51;84.05
53719;BME280;39616;48.872;9.390;2023-02-19T10:07:42;99074.09;;;9.69;83.14
53719;BME280;39616;48.872;9.390;2023-02-19T10:12:48;99075.16;;;9.88;81.42
53719;BME280;39616;48.872;9.390;2023-02-19T10:15:25;99083.03;;;9.64;81.21
53719;BME280;39616;48.872;9.390;2023-02-19T10:17:58;99081.94;;;9.71;80.31
53719;BME280;39616;48.872;9.390;2023-02-19T10:20:29;99083.31;;;9.63;80.40
53719;BME280;39616;48.872;9.390;2023-02-19T10:23:02;99090.34;;;9.74;80.56
53719;BME280;39616;48.872;9.390;2023-02-19T10:25:33;99086.53;;;9.90;80.71
53719;BME280;39616;48.872;9.390;2023-02-19T10:28:08;99101.19;;;9.69;78.48
53719;BME280;39616;48.872;9.390;2023-02-19T10:30:42;99091.69;;;9.82;79.23
53719;BME280;39616;48.872;9.390;2023-02-19T10:33:14;99107.66;;;9.78;76.99
53719;BME280;39616;48.872;9.390;2023-02-19T10:38:44;99107.69;;;9.63;76.99
53719;BME280;39616;48.872;9.390;2023-02-19T10:41:18;99110.38;;;9.68;77.51
53719;BME280;39616;48.872;9.390;2023-02-19T10:44:10;99118.50;;;9.58;77.69
53719;BME280;39616;48.872;9.390;2023-02-19T10:46:48;99122.84;;;9.69;77.35
53719;BME280;39616;48.872;9.390;2023-02-19T10:52:09;99118.75;;;9.72;77.13
53719;BME280;39616;48.872;9.390;2023-02-19T10:55:23;99126.34;;;9.64;77.21
53719;BME280;39616;48.872;9.390;2023-02-19T10:57:55;99127.72;;;9.67;77.08
53719;BME280;39616;48.872;9.390;2023-02-19T11:00:28;99133.41;;;9.76;77.85
53719;BME280;39616;48.872;9.390;2023-02-19T11:03:19;99112.53;;;9.71;77.92
53719;BME280;39616;48.872;9.390;2023-02-19T11:05:57;99124.47;;;9.70;77.17
53719;BME280;39616;48.872;9.390;2023-02-19T11:08:29;99126.09;;;9.76;78.18
53719;BME280;39616;48.872;9.390;2023-02-19T11:11:03;99127.44;;;9.84;77.86
53719;BME280;39616;48.872;9.390;2023-02-19T11:13:34;99127.44;;;9.74;77.32
53719;BME280;39616;48.872;9.390;2023-02-19T11:16:07;99107.94;;;9.66;77.65
53719;BME280;39616;48.872;9.390;2023-02-19T11:18:37;99124.75;;;9.74;77.23
53719;BME280;39616;48.872;9.390;2023-02-19T11:21:36;99127.72;;;9.67;77.45
53719;BME280;39616;48.872;9.390;2023-02-19T11:24:22;99125.81;;;9.62;77.89
53719;BME280;39616;48.872;9.390;2023-02-19T11:26:55;99130.69;;;9.55;77.90
53719;BME280;39616;48.872;9.390;2023-02-19T11:29:27;99121.75;;;9.60;80.72
53719;BME280;39616;48.872;9.390;2023-02-19T11:32:19;99133.13;;;9.57;80.69
53719;BME280;39616;48.872;9.390;2023-02-19T11:35:03;99123.94;;;9.63;80.72
53719;BME280;39616;48.872;9.390;2023-02-19T11:37:53;99135.53;;;9.38;81.89
53719;BME280;39616;48.872;9.390;2023-02-19T11:48:37;99132.03;;;9.88;77.38
53719;BME280;39616;48.872;9.390;2023-02-19T12:00:28;99148.53;;;10.38;75.60
53719;BME280;39616;48.872;9.390;2023-02-19T12:08:40;99149.09;;;10.09;74.35
53719;BME280;39616;48.872;9.390;2023-02-19T12:22:31;99149.38;;;9.82;75.33
53719;BME280;39616;48.872;9.390;2023-02-19T12:36:36;99135.25;;;10.21;76.46
53719;BME280;39616;48.872;9.390;2023-02-19T12:39:23;99147.72;;;10.22;74.79
53719;BME280;39616;48.872;9.390;2023-02-19T12:42:39;99159.66;;;10.11;75.97
53719;BME280;39616;48.872;9.390;2023-02-19T12:45:18;99140.19;;;9.99;76.11
53719;BME280;39616;48.872;9.390;2023-02-19T12:50:54;99146.41;;;10.09;76.03
53719;BME280;39616;48.872;9.390;2023-02-19T12:53:33;99131.50;;;10.27;75.86
53719;BME280;39616;48.872;9.390;2023-02-19T12:56:11;99137.72;;;10.07;74.84
53719;BME280;39616;48.872;9.390;2023-02-19T12:58:47;99126.06;;;9.97;75.98
53719;BME280;39616;48.872;9.390;2023-02-19T13:01:21;99126.06;;;10.07;74.67
53719;BME280;39616;48.872;9.390;2023-02-19T13:04:14;99134.47;;;10.10;74.89
53719;BME280;39616;48.872;9.390;2023-02-19T13:06:51;99138.00;;;9.96;75.18
53719;BME280;39616;48.872;9.390;2023-02-19T13:09:39;99136.09;;;9.71;75.74
53719;BME280;39616;48.872;9.390;2023-02-19T13:12:13;99139.63;;;9.61;75.65
53719;BME280;39616;48.872;9.390;2023-02-19T13:14:48;99145.31;;;9.44;75.60
53719;BME280;39616;48.872;9.390;2023-02-19T13:17:26;99138.78;;;9.35;77.44
53719;BME280;39616;48.872;9.390;2023-02-19T13:20:09;99143.88;;;9.16;78.84
53719;BME280;39616;48.872;9.390;2023-02-19T13:22:59;99142.75;;;8.97;80.76
53719;BME280;39616;48.872;9.390;2023-02-19T13:26:09;99137.34;;;9.02;83.36
53719;BME280;39616;48.872;9.390;2023-02-19T13:37:21;99145.31;;;8.56;93.08
53719;BME280;39616;48.872;9.390;2023-02-19T13:39:54;99157.09;;;8.39;89.44
53719;BME280;39616;48.872;9.390;2023-02-19T13:42:33;99151.97;;;8.43;90.32
53719;BME280;39616;48.872;9.390;2023-02-19T13:45:05;99148.81;;;8.56;89.62
53719;BME280;39616;48.872;9.390;2023-02-19T13:47:47;99144.22;;;8.57;88.40
53719;BME280;39616;48.872;9.390;2023-02-19T13:50:27;99135.41;;;8.82;90.97
53719;BME280;39616;48.872;9.390;2023-02-19T13:52:59;99129.47;;;8.90;88.31
53719;BME280;39616;48.872;9.390;2023-02-19T14:01:03;99163.84;;;8.94;89.25
53719;BME280;39616;48.872;9.390;2023-02-19T14:03:53;99149.09;;;8.55;91.32
53719;BME280;39616;48.872;9.390;2023-02-19T14:06:23;99144.72;;;8.54;96.65
53719;BME280;39616;48.872;9.390;2023-02-19T14:08:56;99149.38;;;8.21;98.85
53719;BME280;39616;48.872;9.390;2023-02-19T14:14:23;99125.06;;;8.21;100.00
53719;BME280;39616;48.872;9.390;2023-02-19T14:16:56;99132.47;;;8.36;100.00
53719;BME280;39616;48.872;9.390;2023-02-19T14:19:48;99132.56;;;8.51;100.00
53719;BME280;39616;48.872;9.390;2023-02-19T14:30:54;99127.03;;;8.88;99.36
53719;BME280;39616;48.872;9.390;2023-02-19T14:33:30;99146.84;;;8.99;96.26
53719;BME280;39616;48.872;9.390;2023-02-19T14:36:05;99138.19;;;9.02;94.87
53719;BME280;39616;48.872;9.390;2023-02-19T14:38:47;99125.19;;;8.99;89.82
53719;BME280;39616;48.872;9.390;2023-02-19T14:41:22;99137.94;;;9.14;91.31
53719;BME280;39616;48.872;9.390;2023-02-19T14:43:55;99139.84;;;9.13;89.53
53719;BME280;39616;48.872;9.390;2023-02-19T14:46:31;99145.53;;;9.17;87.90
53719;BME280;39616;48.872;9.390;2023-02-19T14:49:10;99144.72;;;9.27;88.42
53719;BME280;39616;48.872;9.390;2023-02-19T14:51:45;99156.34;;;9.22;86.62
53719;BME280;39616;48.872;9.390;2023-02-19T14:54:34;99147.72;;;9.30;86.11
53719;BME280;39616;48.872;9.390;2023-02-19T14:57:13;99155.56;;;9.37;85.73
53719;BME280;39616;48.872;9.390;2023-02-19T14:59:54;99153.69;;;9.32;84.32
53719;BME280;39616;48.872;9.390;2023-02-19T15:02:28;99150.97;;;9.32;86.08
53719;BME280;39616;48.872;9.390;2023-02-19T15:04:59;99162.63;;;9.43;85.41
53719;BME280;39616;48.872;9.390;2023-02-19T15:07:31;99169.66;;;9.44;83.36
53719;BME280;39616;48.872;9.390;2023-02-19T15:10:03;99181.84;;;9.41;82.54
53719;BME280;39616;48.872;9.390;2023-02-19T15:12:43;99186.69;;;9.34;82.41
53719;BME280;39616;48.872;9.390;2023-02-19T15:15:18;99201.81;;;9.20;80.01
53719;BME280;39616;48.872;9.390;2023-02-19T15:17:52;99202.13;;;9.29;81.40
53719;BME280;39616;48.872;9.390;2023-02-19T15:20:26;99197.50;;;9.29;80.36
53719;BME280;39616;48.872;9.390;2023-02-19T15:22:58;99199.38;;;9.13;80.10
53719;BME280;39616;48.872;9.390;2023-02-19T15:25:35;99205.03;;;9.12;79.82
53719;BME280;39616;48.872;9.390;2023-02-19T15:33:27;99198.50;;;9.03;81.21
53719;BME280;39616;48.872;9.390;2023-02-19T15:35:59;99199.63;;;9.07;82.59